Time;durP1;ratioP1;P1;durP2;ratioP2;P2;SDS_P1;SDS_P2;PMS_P1;PMS_P2;Temp;Humidity;BMP_temperature;BMP_pressure;BME280_temperature;BME280_humidity;BME280_pressure;Samples;Min_cycle;Max_cycle;Signal;HPM_P1;HPM_P2
2023/06/24 00:00:11;;;;;;;5.87;4.40;;;;;;;18.84;85.43;99018.31;4170840;28;20658;-83
2023/06/24 00:02:37;;;;;;;5.83;4.50;;;;;;;18.82;86.30;99015.78;4155551;28;21136;-83
2023/06/24 00:04:41;;;;;;;5.83;4.63;;;;;;;18.82;86.40;99026.38;4169547;28;20636;-83
2023/06/24 00:06:52;;;;;;;6.53;4.90;;;;;;;18.85;85.83;99020.81;4172542;28;20681;-83
2023/06/24 00:09:15;;;;;;;5.13;4.17;;;;;;;18.82;85.58;99014.97;4149806;28;20629;-83
2023/06/24 00:11:37;;;;;;;5.93;4.57;;;;;;;18.76;86.06;99021.59;4155109;28;20634;-83
2023/06/24 00:14:00;;;;;;;6.17;4.80;;;;;;;18.74;86.31;99023.56;4157324;28;21187;-83
2023/06/24 00:16:27;;;;;;;6.50;5.10;;;;;;;18.73;86.57;99026.31;4155546;28;20666;-83
2023/06/24 00:18:31;;;;;;;6.53;5.03;;;;;;;18.73;86.87;99032.44;4170262;28;20635;-83
2023/06/24 00:20:54;;;;;;;4.50;3.83;;;;;;;18.71;86.62;99023.81;4171837;28;20735;-82
2023/06/24 00:23:24;;;;;;;6.00;4.10;;;;;;;18.56;86.07;99019.00;4171288;28;20651;-83
2023/06/24 00:25:47;;;;;;;6.20;4.67;;;;;;;18.41;85.86;99015.03;4164395;28;21196;-83
2023/06/24 00:27:55;;;;;;;5.87;4.53;;;;;;;18.34;86.55;99016.50;4156842;28;20632;-83
2023/06/24 00:30:18;;;;;;;25.37;19.10;;;;;;;18.31;86.57;99014.16;4169192;28;21308;-83
2023/06/24 00:32:41;;;;;;;8.17;6.57;;;;;;;18.33;86.49;99027.22;4171937;28;20639;-83
2023/06/24 00:35:05;;;;;;;6.40;5.20;;;;;;;18.31;87.03;99023.88;4172547;28;20632;-83
2023/06/24 00:37:29;;;;;;;5.87;5.10;;;;;;;18.32;87.61;99025.56;4174554;28;20675;-83
2023/06/24 00:39:34;;;;;;;5.17;4.43;;;;;;;18.35;87.87;99025.28;4157419;28;20715;-84
2023/06/24 00:41:57;;;;;;;6.77;4.83;;;;;;;18.36;87.16;99024.31;4173054;28;20653;-84
2023/06/24 00:44:22;;;;;;;8.13;4.80;;;;;;;18.35;87.05;99027.94;4169237;28;20658;-84
2023/06/24 00:46:45;;;;;;;7.23;5.00;;;;;;;18.35;87.46;99020.00;4152436;28;20636;-83
2023/06/24 00:49:08;;;;;;;6.07;4.67;;;;;;;18.32;87.03;99020.28;4170899;28;20694;-84
2023/06/24 00:51:14;;;;;;;7.20;4.40;;;;;;;18.32;87.19;99013.16;4150537;28;20731;-84
2023/06/24 00:53:38;;;;;;;5.90;4.50;;;;;;;18.29;87.50;99017.88;4156631;28;20670;-84
2023/06/24 00:55:46;;;;;;;5.10;3.93;;;;;;;18.29;87.30;99015.25;4170997;28;20654;-84
2023/06/24 00:58:09;;;;;;;6.83;4.87;;;;;;;18.31;87.48;99018.59;4171265;28;21079;-84
2023/06/24 01:00:21;;;;;;;6.33;4.93;;;;;;;18.27;86.99;99017.19;4168379;28;20654;-84
2023/06/24 01:02:45;;;;;;;6.10;4.33;;;;;;;18.17;87.00;99011.00;4153526;28;20643;-84
2023/06/24 01:05:10;;;;;;;5.93;4.50;;;;;;;18.07;86.99;99016.19;4168917;28;21387;-84
2023/06/24 01:07:35;;;;;;;5.57;4.40;;;;;;;18.00;87.42;99014.19;4167834;28;20654;-84
2023/06/24 01:10:00;;;;;;;4.63;3.87;;;;;;;18.00;87.29;99014.19;4167804;28;20647;-84
2023/06/24 01:12:16;;;;;;;6.40;4.93;;;;;;;18.00;87.48;99014.19;4170086;28;20658;-84
2023/06/24 01:14:39;;;;;;;5.57;4.70;;;;;;;17.98;87.75;99011.66;4168482;28;20666;-83
2023/06/24 01:17:10;;;;;;;7.00;4.30;;;;;;;17.98;88.21;99010.81;4155698;28;20640;-83
2023/06/24 01:19:55;;;;;;;6.00;4.57;;;;;;;17.98;88.45;99010.81;4169452;28;20657;-84
2023/06/24 01:22:12;;;;;;;4.30;3.90;;;;;;;17.96;88.74;99003.00;4157598;28;20665;-84
2023/06/24 01:24:49;;;;;;;5.43;4.63;;;;;;;17.92;88.28;98998.16;4169044;28;20736;-84
2023/06/24 01:27:15;;;;;;;6.03;4.70;;;;;;;17.90;88.52;99001.88;4168985;28;20641;-84
2023/06/24 01:29:54;;;;;;;5.60;4.90;;;;;;;17.89;88.78;99008.09;4147871;28;20625;-84
2023/06/24 01:32:00;;;;;;;5.67;4.30;;;;;;;17.85;88.59;99007.53;4169806;28;21015;-84
2023/06/24 01:34:11;;;;;;;6.50;4.90;;;;;;;17.82;88.73;99007.78;4152811;28;20634;-84
2023/06/24 01:36:17;;;;;;;7.97;4.70;;;;;;;17.78;88.98;99009.00;4182793;28;20617;-84
2023/06/24 01:38:27;;;;;;;7.00;5.03;;;;;;;17.79;88.83;99012.50;4169690;28;20637;-84
2023/06/24 01:40:36;;;;;;;5.07;4.50;;;;;;;17.76;89.08;99016.19;4153081;28;20645;-84
2023/06/24 01:43:01;;;;;;;5.13;3.90;;;;;;;17.71;88.94;99005.19;4156175;28;20670;-84
2023/06/24 01:45:08;;;;;;;5.47;4.50;;;;;;;17.71;88.50;99007.84;4171926;28;20721;-84
2023/06/24 01:47:15;;;;;;;5.93;4.20;;;;;;;17.71;89.15;99005.19;4170714;28;21088;-84
2023/06/24 01:49:20;;;;;;;6.10;4.90;;;;;;;17.70;88.46;99000.88;4173957;28;20638;-84
2023/06/24 01:51:27;;;;;;;6.00;4.97;;;;;;;17.69;89.90;99007.09;4168838;28;21071;-84
2023/06/24 01:53:34;;;;;;;5.90;5.30;;;;;;;17.67;88.73;99003.75;4183466;28;20744;-84
2023/06/24 01:55:39;;;;;;;7.90;4.87;;;;;;;17.63;88.40;99001.50;4172216;28;20654;-84
2023/06/24 01:57:44;;;;;;;5.50;4.63;;;;;;;17.60;88.91;98999.94;4165323;28;20634;-84
2023/06/24 01:59:48;;;;;;;7.00;5.03;;;;;;;17.58;88.72;98996.59;4181266;28;20637;-84
2023/06/24 02:01:53;;;;;;;6.40;5.10;;;;;;;17.56;89.36;98997.69;4168130;28;21016;-84
2023/06/24 02:04:00;;;;;;;7.60;5.40;;;;;;;17.54;88.38;98996.97;4153556;28;20735;-84
2023/06/24 02:06:04;;;;;;;5.97;4.80;;;;;;;17.51;88.41;98998.09;4153054;28;20729;-84
2023/06/24 02:08:09;;;;;;;6.57;4.50;;;;;;;17.51;89.29;99002.50;4183309;28;20693;-84
2023/06/24 02:10:13;;;;;;;4.77;4.27;;;;;;;17.48;89.36;99003.59;4167223;28;20825;-84
2023/06/24 02:12:17;;;;;;;7.07;5.30;;;;;;;17.45;88.94;98994.25;4166185;28;20639;-84
2023/06/24 02:14:21;;;;;;;7.73;5.10;;;;;;;17.42;89.00;98999.78;4156677;28;20628;-84
2023/06/24 02:16:25;;;;;;;6.80;4.90;;;;;;;17.39;88.95;98995.59;4171357;28;21287;-84
2023/06/24 02:18:29;;;;;;;5.77;4.93;;;;;;;17.35;89.86;98991.53;4168157;28;20762;-84
2023/06/24 02:20:35;;;;;;;5.73;4.90;;;;;;;17.33;88.57;98993.44;4166585;28;20648;-84
2023/06/24 02:22:40;;;;;;;6.10;4.70;;;;;;;17.33;89.72;98993.44;4147622;28;20629;-84
2023/06/24 02:24:44;;;;;;;5.33;4.60;;;;;;;17.28;89.34;98989.53;4171287;28;20647;-84
2023/06/24 02:26:48;;;;;;;8.73;5.27;;;;;;;17.27;89.91;98986.03;4154423;28;20687;-84
2023/06/24 02:28:53;;;;;;;6.37;5.00;;;;;;;17.22;89.27;98990.00;4169068;28;20722;-84
2023/06/24 02:30:58;;;;;;;7.03;5.27;;;;;;;17.19;89.89;98988.41;4170838;28;20726;-84
2023/06/24 02:33:01;;;;;;;7.93;5.33;;;;;;;17.17;88.71;98989.50;4174907;28;20665;-84
2023/06/24 02:35:07;;;;;;;6.80;4.50;;;;;;;17.14;89.84;98984.50;4173649;28;21024;-84
2023/06/24 02:37:13;;;;;;;6.17;5.40;;;;;;;17.15;89.62;98980.88;4173807;28;20635;-84
2023/06/24 02:39:18;;;;;;;6.03;4.90;;;;;;;17.16;89.22;98987.84;4160390;28;20688;-84
2023/06/24 02:41:22;;;;;;;6.60;5.27;;;;;;;17.15;89.63;98988.78;4172127;28;20642;-84
2023/06/24 02:43:27;;;;;;;6.70;4.73;;;;;;;17.12;89.86;98991.66;4172816;28;20633;-84
2023/06/24 02:45:31;;;;;;;6.63;5.50;;;;;;;17.07;89.09;98988.56;4156121;28;20689;-84
2023/06/24 02:47:35;;;;;;;6.27;5.30;;;;;;;17.05;89.11;98987.88;4172055;28;20629;-84
2023/06/24 02:49:40;;;;;;;6.33;5.43;;;;;;;17.03;90.01;98984.50;4160218;28;20740;-84
2023/06/24 02:51:45;;;;;;;6.33;5.03;;;;;;;17.02;88.55;98993.38;4176589;28;20639;-84
2023/06/24 02:53:51;;;;;;;7.57;5.63;;;;;;;17.00;90.68;98982.09;4173622;28;20747;-84
2023/06/24 02:56:00;;;;;;;7.33;5.53;;;;;;;16.97;89.73;98986.78;4166131;28;20702;-83
2023/06/24 02:58:07;;;;;;;8.00;5.70;;;;;;;16.94;89.00;98987.84;4164707;28;21059;-84
2023/06/24 03:00:14;;;;;;;7.80;5.40;;;;;;;16.92;88.91;98988.97;4173144;28;20650;-83
2023/06/24 03:02:37;;;;;;;7.70;5.33;;;;;;;16.90;90.12;98986.44;4184314;28;20663;-84
2023/06/24 03:04:42;;;;;;;6.93;5.80;;;;;;;16.91;88.81;98985.47;4153218;28;20652;-84
2023/06/24 03:06:46;;;;;;;6.30;5.20;;;;;;;16.89;90.33;98987.41;4161768;28;20777;-84
2023/06/24 03:08:52;;;;;;;6.60;5.20;;;;;;;16.87;89.72;98977.91;4175081;28;21273;-84
2023/06/24 03:10:59;;;;;;;7.00;4.87;;;;;;;16.85;90.72;98993.03;4173521;28;20679;-84
2023/06/24 03:13:06;;;;;;;7.60;5.20;;;;;;;16.81;89.11;98992.44;4157191;28;20637;-84
2023/06/24 03:15:18;;;;;;;6.53;4.73;;;;;;;16.76;89.63;98991.94;4175581;28;20624;-84
2023/06/24 03:17:24;;;;;;;6.23;4.77;;;;;;;16.72;89.96;98989.69;4171097;28;20660;-84
2023/06/24 03:19:27;;;;;;;5.47;4.70;;;;;;;16.69;90.96;98993.41;4159425;28;20640;-84
2023/06/24 03:21:32;;;;;;;7.97;5.67;;;;;;;16.69;90.87;98998.66;4171727;28;20724;-84
2023/06/24 03:23:43;;;;;;;6.17;5.13;;;;;;;16.71;90.04;99006.47;4155628;28;20677;-83
2023/06/24 03:25:50;;;;;;;8.30;5.30;;;;;;;16.73;90.25;99015.06;4168825;28;21677;-83
2023/06/24 03:28:00;;;;;;;7.13;5.60;;;;;;;16.71;89.77;99009.91;4172154;28;20644;-84
2023/06/24 03:30:07;;;;;;;6.20;4.70;;;;;;;16.69;91.42;99013.66;4152507;28;20652;-83
2023/06/24 03:32:16;;;;;;;6.17;5.13;;;;;;;16.65;89.62;99010.41;4157645;28;20636;-84
2023/06/24 03:34:20;;;;;;;6.70;4.93;;;;;;;16.63;90.70;99012.31;4167429;28;20665;-84
2023/06/24 03:36:23;;;;;;;6.57;4.80;;;;;;;16.66;89.36;99016.53;4173026;28;20633;-84
2023/06/24 03:38:28;;;;;;;6.77;5.10;;;;;;;16.63;89.56;99020.22;4151224;28;20630;-84
2023/06/24 03:40:33;;;;;;;6.80;5.40;;;;;;;16.66;90.31;99016.53;4168732;28;20647;-84
2023/06/24 03:42:38;;;;;;;7.10;5.30;;;;;;;16.66;90.90;99024.44;4149840;28;20692;-83
2023/06/24 03:44:42;;;;;;;6.07;5.00;;;;;;;16.68;91.44;99028.59;4186005;28;20671;-84
2023/06/24 03:46:45;;;;;;;6.47;5.07;;;;;;;16.68;91.24;99028.59;4171026;28;20639;-84
2023/06/24 03:48:51;;;;;;;6.40;4.87;;;;;;;16.66;91.78;99040.22;4176108;28;20633;-84
2023/06/24 03:50:55;;;;;;;5.93;4.43;;;;;;;16.66;89.94;99032.34;4161557;28;20709;-84
2023/06/24 03:52:58;;;;;;;7.00;5.10;;;;;;;16.64;90.28;99035.09;4151009;28;20644;-84
2023/06/24 03:55:04;;;;;;;5.80;4.70;;;;;;;16.65;91.04;99038.53;4173943;28;20681;-84
2023/06/24 03:57:08;;;;;;;9.70;5.20;;;;;;;16.66;90.81;99043.69;4153558;28;20727;-84
2023/06/24 03:59:14;;;;;;;5.37;4.63;;;;;;;16.70;90.99;99047.78;4171842;28;20644;-83
2023/06/24 04:01:18;;;;;;;8.10;5.30;;;;;;;16.75;90.43;99042.16;4170457;28;20655;-84
2023/06/24 04:03:25;;;;;;;8.30;5.27;;;;;;;16.78;90.03;99055.06;4165676;28;22248;-84
2023/06/24 04:05:29;;;;;;;7.07;5.27;;;;;;;16.80;91.07;99056.63;4171692;28;20655;-84
2023/06/24 04:07:35;;;;;;;7.37;5.40;;;;;;;16.79;90.12;99060.22;4173648;28;20763;-83
2023/06/24 04:09:39;;;;;;;6.93;5.53;;;;;;;16.81;90.20;99055.69;4157586;28;20635;-84
2023/06/24 04:11:42;;;;;;;7.17;5.33;;;;;;;16.85;90.26;99061.53;4169881;28;20712;-84
2023/06/24 04:13:49;;;;;;;6.70;5.60;;;;;;;16.88;89.85;99064.78;4165007;28;20699;-83
2023/06/24 04:15:54;;;;;;;6.97;5.43;;;;;;;16.92;91.05;99068.03;4156800;28;20629;-84
2023/06/24 04:17:58;;;;;;;6.83;5.60;;;;;;;16.98;90.82;99070.19;4153735;28;20628;-84
2023/06/24 04:20:06;;;;;;;6.90;5.93;;;;;;;17.02;90.13;99069.81;4156864;28;21419;-84
2023/06/24 04:22:11;;;;;;;7.40;5.60;;;;;;;17.07;90.59;99083.47;4151787;28;20700;-84
2023/06/24 04:24:16;;;;;;;6.57;5.30;;;;;;;17.10;90.53;99073.50;4156334;28;20623;-83
2023/06/24 04:26:20;;;;;;;6.30;5.20;;;;;;;17.16;90.02;99086.22;4168340;28;20657;-84
2023/06/24 04:28:24;;;;;;;6.60;5.20;;;;;;;17.18;90.03;99081.66;4162089;28;20637;-84
2023/06/24 04:30:28;;;;;;;6.03;4.90;;;;;;;17.23;88.98;99084.81;4166453;28;20627;-84
2023/06/24 04:32:33;;;;;;;7.53;5.60;;;;;;;17.27;89.28;99086.25;4172858;28;20729;-84
2023/06/24 04:34:37;;;;;;;6.87;5.60;;;;;;;17.33;89.50;99074.38;4172988;28;20673;-84
2023/06/24 04:36:40;;;;;;;7.67;5.37;;;;;;;17.35;90.08;99075.06;4171294;28;20637;-84
2023/06/24 04:38:44;;;;;;;6.60;5.40;;;;;;;17.39;89.37;99082.63;4153150;28;21233;-83
2023/06/24 04:40:47;;;;;;;6.13;5.53;;;;;;;17.42;89.26;99078.91;4173982;28;20662;-84
2023/06/24 04:42:52;;;;;;;6.23;4.80;;;;;;;17.44;88.93;99087.53;4173561;28;20630;-84
2023/06/24 04:44:56;;;;;;;8.37;6.90;;;;;;;17.44;89.73;99092.81;4172293;28;20642;-84
2023/06/24 04:46:59;;;;;;;5.90;5.30;;;;;;;17.44;88.86;99092.81;4173832;28;21258;-84
2023/06/24 04:49:04;;;;;;;7.80;6.13;;;;;;;17.46;88.88;99097.00;4171995;28;21057;-84
2023/06/24 04:51:08;;;;;;;6.53;4.83;;;;;;;17.48;89.60;99093.31;4170578;28;20617;-84
2023/06/24 04:53:11;;;;;;;6.87;5.20;;;;;;;17.52;89.27;99102.63;4156822;28;20662;-83
2023/06/24 04:55:16;;;;;;;6.17;4.97;;;;;;;17.57;90.16;99095.19;4167651;28;20634;-83
2023/06/24 04:57:28;;;;;;;7.37;5.87;;;;;;;17.63;90.19;99099.97;4169048;28;20642;-84
2023/06/24 04:59:31;;;;;;;6.40;5.20;;;;;;;17.67;90.38;99101.41;4153017;28;20650;-84
2023/06/24 05:01:36;;;;;;;8.13;5.23;;;;;;;17.71;89.77;99099.34;4171050;28;21229;-83
2023/06/24 05:03:39;;;;;;;6.73;5.00;;;;;;;17.77;89.60;99102.34;4170871;28;20687;-84
2023/06/24 05:05:46;;;;;;;7.47;5.40;;;;;;;17.86;89.83;99106.88;4170440;28;20982;-84
2023/06/24 05:07:50;;;;;;;8.50;6.17;;;;;;;17.96;89.65;99102.50;4166254;28;21413;-84
2023/06/24 05:09:55;;;;;;;8.20;5.90;;;;;;;18.03;89.17;99103.69;4170642;28;20720;-84
2023/06/24 05:11:59;;;;;;;7.00;5.80;;;;;;;18.07;88.65;99108.59;4153386;28;20681;-84
2023/06/24 05:14:04;;;;;;;6.70;5.80;;;;;;;18.14;88.13;99108.97;4171570;28;20631;-84
2023/06/24 05:16:09;;;;;;;7.90;5.53;;;;;;;18.21;87.57;99107.50;4154403;28;20622;-84
2023/06/24 05:18:17;;;;;;;6.90;5.13;;;;;;;18.26;86.46;99106.13;4150721;28;20643;-84
2023/06/24 05:20:21;;;;;;;8.10;5.43;;;;;;;18.31;86.50;99111.03;4174828;28;20724;-84
2023/06/24 05:22:26;;;;;;;7.83;5.70;;;;;;;18.35;86.52;99110.66;4173699;28;21029;-84
2023/06/24 05:24:29;;;;;;;7.90;5.73;;;;;;;18.39;85.89;99112.09;4172423;28;20625;-83
2023/06/24 05:26:37;;;;;;;7.43;6.00;;;;;;;18.41;85.62;99106.69;4148596;28;20777;-84
2023/06/24 05:28:40;;;;;;;8.70;6.07;;;;;;;18.47;85.70;99118.41;4169659;28;21209;-84
2023/06/24 05:30:45;;;;;;;6.93;5.87;;;;;;;18.55;85.14;99115.97;4170017;28;20639;-84
2023/06/24 05:32:50;;;;;;;8.10;6.63;;;;;;;18.62;85.00;99113.66;4168196;28;20635;-83
2023/06/24 05:34:53;;;;;;;6.00;4.77;;;;;;;18.73;85.01;99121.50;4169481;28;20636;-84
2023/06/24 05:36:57;;;;;;;6.30;4.80;;;;;;;18.89;85.03;99120.06;4170518;28;20680;-84
2023/06/24 05:39:02;;;;;;;6.10;4.57;;;;;;;19.08;83.82;99112.28;4172453;28;20632;-83
2023/06/24 05:41:06;;;;;;;7.07;4.93;;;;;;;19.32;84.79;99118.06;4171401;28;21582;-84
2023/06/24 05:43:10;;;;;;;7.47;5.10;;;;;;;19.59;82.50;99122.63;4168235;28;21383;-84
2023/06/24 05:45:14;;;;;;;6.13;4.93;;;;;;;19.90;81.64;99129.56;4169649;28;20632;-84
2023/06/24 05:47:17;;;;;;;6.43;5.10;;;;;;;20.20;80.25;99132.09;4174013;28;21237;-83
2023/06/24 05:49:22;;;;;;;6.40;4.80;;;;;;;20.43;80.42;99129.03;4168199;28;20999;-83
2023/06/24 05:51:26;;;;;;;6.77;5.07;;;;;;;20.68;79.85;99121.38;4172693;28;20644;-84
2023/06/24 05:53:29;;;;;;;8.20;5.53;;;;;;;20.89;77.98;99122.84;4167012;28;20778;-84
2023/06/24 05:55:34;;;;;;;5.70;5.03;;;;;;;21.11;78.01;99130.50;4155327;28;20631;-84
2023/06/24 05:57:38;;;;;;;7.53;5.10;;;;;;;21.31;76.58;99130.25;4167172;28;20636;-84
2023/06/24 05:59:42;;;;;;;7.83;4.10;;;;;;;21.56;76.76;99131.44;4144486;28;20727;-83
2023/06/24 06:01:45;;;;;;;7.57;5.60;;;;;;;21.78;76.29;99135.41;4159413;28;20638;-84
2023/06/24 06:03:49;;;;;;;7.47;5.20;;;;;;;22.03;76.43;99139.97;4141458;28;21036;-84
2023/06/24 06:05:55;;;;;;;6.50;5.03;;;;;;;22.31;75.01;99139.81;4155959;28;20624;-84
2023/06/24 06:07:59;;;;;;;5.50;4.43;;;;;;;22.51;74.78;99133.34;4171244;28;20676;-84
2023/06/24 06:10:04;;;;;;;5.53;4.20;;;;;;;22.80;73.77;99136.56;4171538;28;20632;-84
2023/06/24 06:12:10;;;;;;;6.50;5.27;;;;;;;23.07;71.97;99131.97;4176463;28;20634;-84
2023/06/24 06:14:14;;;;;;;6.40;4.70;;;;;;;23.29;70.70;99121.63;4170867;28;21007;-84
2023/06/24 06:16:19;;;;;;;5.70;4.57;;;;;;;23.53;70.56;99129.75;4157856;28;20677;-84
2023/06/24 06:18:22;;;;;;;5.63;4.80;;;;;;;23.79;68.65;99127.88;4172615;28;20645;-83
2023/06/24 06:20:26;;;;;;;5.70;4.57;;;;;;;23.97;68.01;99132.09;4169605;28;20635;-84
2023/06/24 06:22:29;;;;;;;4.70;4.10;;;;;;;24.18;67.75;99127.16;4177402;28;20657;-83
2023/06/24 06:24:33;;;;;;;5.60;4.27;;;;;;;24.28;68.07;99131.34;4169732;28;20632;-83
2023/06/24 06:26:44;;;;;;;5.93;4.37;;;;;;;24.39;67.20;99128.38;4172243;28;20627;-84
2023/06/24 06:28:49;;;;;;;6.53;4.20;;;;;;;24.54;65.97;99126.72;4171410;28;20638;-84
2023/06/24 06:30:53;;;;;;;5.47;4.57;;;;;;;24.70;67.47;99126.69;4173060;28;20731;-84
2023/06/24 06:32:56;;;;;;;5.50;4.37;;;;;;;24.86;65.05;99132.88;4170468;28;20655;-83
2023/06/24 06:35:00;;;;;;;6.10;4.20;;;;;;;24.99;66.23;99127.91;4172948;28;21065;-83
2023/06/24 06:37:05;;;;;;;6.20;4.50;;;;;;;25.15;64.36;99133.19;4172157;28;20634;-84
2023/06/24 06:39:08;;;;;;;5.00;4.30;;;;;;;25.22;64.13;99124.34;4170332;28;21202;-83
2023/06/24 06:41:12;;;;;;;5.23;3.83;;;;;;;25.37;64.27;99136.00;4170842;28;20643;-83
2023/06/24 06:43:16;;;;;;;5.90;4.00;;;;;;;25.42;63.62;99122.94;4154962;28;20622;-83
2023/06/24 06:45:20;;;;;;;5.90;4.03;;;;;;;25.49;63.43;99118.56;4138283;28;20732;-84
2023/06/24 06:47:24;;;;;;;6.03;4.60;;;;;;;25.53;63.91;99119.91;4163293;28;20668;-83
2023/06/24 06:49:28;;;;;;;12.30;4.30;;;;;;;25.70;62.38;99117.03;4169802;28;21195;-81
2023/06/24 06:51:34;;;;;;;4.43;3.93;;;;;;;25.75;61.88;99117.31;4156865;28;20731;-83
2023/06/24 06:53:39;;;;;;;6.30;4.60;;;;;;;25.74;62.24;99120.16;4171323;28;20757;-83
2023/06/24 06:55:44;;;;;;;4.10;3.40;;;;;;;25.98;62.60;99125.41;4148809;28;20656;-85
2023/06/24 06:57:47;;;;;;;5.77;4.30;;;;;;;26.20;61.65;99118.22;4163596;28;20636;-84
2023/06/24 06:59:51;;;;;;;6.07;4.43;;;;;;;26.40;62.15;99129.34;4174525;28;21206;-84
2023/06/24 07:01:57;;;;;;;5.40;4.07;;;;;;;26.55;61.01;99127.56;4170501;28;20635;-84
2023/06/24 07:04:01;;;;;;;5.97;4.10;;;;;;;26.71;61.53;99123.75;4172662;28;20811;-84
2023/06/24 07:06:06;;;;;;;6.97;3.70;;;;;;;26.85;61.04;99119.44;4153587;28;21050;-84
2023/06/24 07:08:12;;;;;;;5.10;3.77;;;;;;;26.97;60.35;99113.50;4173439;28;21062;-84
2023/06/24 07:10:23;;;;;;;4.80;3.73;;;;;;;27.09;60.63;99120.94;4171564;28;20993;-84
2023/06/24 07:12:27;;;;;;;6.03;4.40;;;;;;;27.16;59.78;99113.81;4165529;28;20646;-84
2023/06/24 07:14:30;;;;;;;5.50;4.00;;;;;;;27.25;58.74;99111.88;4171464;28;20673;-83
2023/06/24 07:16:34;;;;;;;4.63;4.00;;;;;;;27.35;58.74;99115.09;4172030;28;20625;-84
2023/06/24 07:18:39;;;;;;;6.73;4.13;;;;;;;27.46;59.55;99117.34;4171895;28;20621;-84
2023/06/24 07:20:43;;;;;;;4.33;3.60;;;;;;;27.55;58.50;99117.09;4147129;28;20676;-84
2023/06/24 07:22:46;;;;;;;6.03;4.27;;;;;;;27.62;59.34;99118.03;4165510;28;20673;-84
2023/06/24 07:24:50;;;;;;;4.20;3.50;;;;;;;27.73;59.65;99115.69;4173437;28;20686;-84
2023/06/24 07:26:54;;;;;;;5.13;4.10;;;;;;;27.79;58.48;99106.88;4173524;28;20632;-84
2023/06/24 07:28:59;;;;;;;8.47;3.70;;;;;;;27.86;58.38;99109.66;4170066;28;20655;-84
2023/06/24 07:31:11;;;;;;;4.03;3.63;;;;;;;27.91;58.07;99112.63;4173911;28;20712;-84
2023/06/24 07:33:15;;;;;;;4.13;3.60;;;;;;;28.04;58.45;99113.59;4174229;28;20640;-84
2023/06/24 07:35:21;;;;;;;4.27;3.70;;;;;;;28.12;59.92;99103.59;4156284;28;21236;-84
2023/06/24 07:37:25;;;;;;;4.87;3.43;;;;;;;28.23;58.18;99111.16;4158474;28;20725;-84
2023/06/24 07:39:29;;;;;;;5.63;4.07;;;;;;;28.40;57.78;99109.06;4171909;28;21378;-84
2023/06/24 07:41:33;;;;;;;5.07;3.90;;;;;;;28.39;57.39;99110.09;4169099;28;21223;-83
2023/06/24 07:43:38;;;;;;;4.90;4.00;;;;;;;28.40;57.89;99109.06;4163661;28;20636;-84
2023/06/24 07:45:44;;;;;;;4.67;3.87;;;;;;;28.51;58.30;99106.72;4173436;28;20970;-84
2023/06/24 07:47:47;;;;;;;6.43;3.80;;;;;;;28.63;57.14;99110.53;4154586;28;20723;-84
2023/06/24 07:49:51;;;;;;;5.63;4.33;;;;;;;28.83;59.06;99100.81;4172261;28;20631;-84
2023/06/24 07:51:57;;;;;;;4.07;3.50;;;;;;;28.97;56.62;99099.91;4169925;28;20631;-84
2023/06/24 07:54:00;;;;;;;3.80;3.03;;;;;;;29.08;57.38;99109.09;4170835;28;20633;-83
2023/06/24 07:56:07;;;;;;;6.00;3.80;;;;;;;29.16;57.05;99100.88;4157587;28;20621;-84
2023/06/24 07:58:11;;;;;;;4.93;4.40;;;;;;;29.30;56.96;99099.94;4174927;28;21146;-83
2023/06/24 08:00:17;;;;;;;4.60;3.83;;;;;;;29.37;57.37;99095.47;4168544;28;20661;-83
2023/06/24 08:02:20;;;;;;;5.97;4.33;;;;;;;29.38;55.68;99098.97;4169721;28;21059;-83
2023/06/24 08:04:24;;;;;;;4.70;3.87;;;;;;;29.47;56.60;99093.25;4169183;28;20681;-83
2023/06/24 08:06:28;;;;;;;5.03;4.30;;;;;;;29.51;55.38;99089.13;4170488;28;20696;-83
2023/06/24 08:08:32;;;;;;;5.33;3.77;;;;;;;29.49;55.06;99086.63;4173025;28;20688;-83
2023/06/24 08:10:36;;;;;;;4.27;3.70;;;;;;;29.53;54.41;99090.59;4171649;28;21203;-83
2023/06/24 08:12:40;;;;;;;8.47;3.67;;;;;;;29.66;55.07;99095.19;4155864;28;20724;-83
2023/06/24 08:14:45;;;;;;;4.43;3.70;;;;;;;29.61;54.26;99092.28;4171464;28;20635;-83
2023/06/24 08:16:48;;;;;;;4.30;3.83;;;;;;;29.65;55.24;99091.69;4152640;28;21211;-83
2023/06/24 08:18:53;;;;;;;5.33;3.70;;;;;;;29.66;54.33;99089.81;4155775;28;20685;-83
2023/06/24 08:20:57;;;;;;;5.30;4.30;;;;;;;29.70;53.68;99093.78;4169383;28;21352;-83
2023/06/24 08:23:00;;;;;;;3.53;3.23;;;;;;;29.73;53.03;99093.38;4158020;28;20644;-83
2023/06/24 08:25:07;;;;;;;5.10;3.53;;;;;;;29.74;52.32;99089.63;4167354;28;20655;-82
2023/06/24 08:27:11;;;;;;;4.80;3.10;;;;;;;29.77;52.26;99090.09;4169416;28;20640;-82
2023/06/24 08:29:15;;;;;;;4.20;3.80;;;;;;;29.90;54.37;99089.34;4169743;28;20660;-82
2023/06/24 08:31:22;;;;;;;4.40;3.57;;;;;;;29.99;53.46;99088.94;4168438;28;21022;-82
2023/06/24 08:33:27;;;;;;;4.60;3.80;;;;;;;30.11;54.52;99085.47;4153679;28;20956;-82
2023/06/24 08:35:31;;;;;;;4.63;3.60;;;;;;;30.25;54.87;99087.19;4158753;28;20628;-83
2023/06/24 08:37:35;;;;;;;5.17;3.90;;;;;;;30.45;53.72;99090.75;4151868;28;20724;-83
2023/06/24 08:39:38;;;;;;;5.07;4.23;;;;;;;30.45;51.90;99088.06;4170229;28;20838;-83
2023/06/24 08:41:44;;;;;;;4.70;4.17;;;;;;;30.17;51.98;99079.25;4168198;28;20666;-83
2023/06/24 08:43:47;;;;;;;4.67;4.07;;;;;;;30.07;53.83;99083.38;4174295;28;20682;-83
2023/06/24 08:45:53;;;;;;;5.53;4.00;;;;;;;30.06;54.43;99071.78;4163947;28;20635;-83
2023/06/24 08:48:00;;;;;;;5.60;4.07;;;;;;;29.98;52.92;99073.84;4169254;28;20664;-83
2023/06/24 08:50:07;;;;;;;5.20;4.10;;;;;;;29.89;52.45;99071.50;4153099;28;20630;-83
2023/06/24 08:52:14;;;;;;;5.40;3.70;;;;;;;29.97;54.63;99069.47;4175307;28;21241;-83
2023/06/24 08:54:21;;;;;;;4.70;3.90;;;;;;;29.90;52.79;99060.53;4175742;28;20741;-83
2023/06/24 08:56:24;;;;;;;4.00;3.27;;;;;;;29.72;52.08;99062.09;4168287;28;20638;-83
2023/06/24 08:58:29;;;;;;;6.47;3.67;;;;;;;29.82;53.90;99063.41;4171180;28;20632;-83
2023/06/24 09:00:33;;;;;;;5.53;3.77;;;;;;;29.94;53.58;99059.94;4172972;28;21224;-83
2023/06/24 09:02:37;;;;;;;4.53;3.30;;;;;;;30.00;53.38;99069.06;4160967;28;20637;-83
2023/06/24 09:04:42;;;;;;;3.60;3.10;;;;;;;30.04;52.43;99063.09;4165700;28;20646;-82
2023/06/24 09:06:45;;;;;;;3.77;3.33;;;;;;;30.06;51.65;99058.31;4173791;28;20658;-82
2023/06/24 09:08:55;;;;;;;4.50;3.37;;;;;;;30.06;50.49;99061.00;4149027;28;20757;-81
2023/06/24 09:10:59;;;;;;;4.10;3.37;;;;;;;29.94;52.04;99052.91;4165197;28;20638;-81
2023/06/24 09:13:04;;;;;;;4.30;3.40;;;;;;;29.96;51.41;99062.44;4171691;28;20657;-81
2023/06/24 09:15:15;;;;;;;4.47;3.33;;;;;;;29.81;50.96;99059.06;4167645;28;20686;-82
2023/06/24 09:17:22;;;;;;;4.03;3.20;;;;;;;30.00;52.58;99059.13;4164528;28;20638;-82
2023/06/24 09:19:28;;;;;;;4.93;3.40;;;;;;;30.16;52.93;99050.69;4154830;28;21212;-82
2023/06/24 09:21:31;;;;;;;4.87;3.97;;;;;;;30.26;51.73;99051.09;4185930;28;20638;-82
2023/06/24 09:23:37;;;;;;;4.57;4.00;;;;;;;30.33;51.44;99053.84;4173411;28;21110;-82
2023/06/24 09:25:42;;;;;;;4.47;3.47;;;;;;;30.39;52.17;99047.66;4171606;28;20627;-82
2023/06/24 09:27:52;;;;;;;5.00;3.40;;;;;;;30.37;50.62;99045.16;4152985;28;20633;-82
2023/06/24 09:29:55;;;;;;;10.80;4.10;;;;;;;30.27;52.51;99039.31;4171098;28;21597;-82
2023/06/24 09:32:01;;;;;;;4.10;3.57;;;;;;;30.31;51.55;99039.72;4164418;28;21233;-81
2023/06/24 09:34:06;;;;;;;4.10;3.70;;;;;;;30.30;52.76;99033.50;4184272;28;20646;-82
2023/06/24 09:36:12;;;;;;;8.80;4.33;;;;;;;30.22;51.05;99020.25;4171862;28;20741;-82
2023/06/24 09:38:33;;;;;;;5.40;3.70;;;;;;;30.06;52.13;99028.69;4166273;28;20706;-82
2023/06/24 09:40:40;;;;;;;3.60;3.20;;;;;;;29.77;51.80;99013.88;4169300;28;20642;-82
2023/06/24 09:42:52;;;;;;;3.90;3.20;;;;;;;29.53;50.80;99019.81;4159549;28;20668;-82
2023/06/24 09:44:58;;;;;;;3.77;3.17;;;;;;;29.31;52.49;99017.44;4157089;28;21072;-82
2023/06/24 09:47:14;;;;;;;5.73;4.17;;;;;;;29.35;52.46;99014.16;4146138;28;20660;-82
2023/06/24 09:49:20;;;;;;;3.70;3.13;;;;;;;29.51;52.52;99008.41;4146848;28;20668;-82
2023/06/24 09:51:25;;;;;;;4.80;3.10;;;;;;;29.57;52.36;99010.28;4160077;28;20733;-82
2023/06/24 09:53:31;;;;;;;4.30;3.53;;;;;;;29.69;52.19;99006.81;4171950;28;20739;-82
2023/06/24 09:55:39;;;;;;;4.30;3.50;;;;;;;29.62;50.81;99002.47;4171744;28;20617;-81
2023/06/24 09:57:46;;;;;;;3.90;3.27;;;;;;;29.52;52.01;99002.81;4172796;28;20636;-81
2023/06/24 09:59:50;;;;;;;3.97;3.47;;;;;;;29.41;51.40;98999.06;4169562;28;21214;-81